sensor_id;sensor_type;location;lat;lon;timestamp;pressure;altitude;pressure_sealevel;temperature;humidity
50302;BME280;36550;50.472;19.744;2023-08-20T00:02:01;98483.20;;;19.70;84.66
50302;BME280;36550;50.472;19.744;2023-08-20T00:04:46;98479.95;;;19.71;84.92
50302;BME280;36550;50.472;19.744;2023-08-20T00:07:32;98483.41;;;19.71;85.02
50302;BME280;36550;50.472;19.744;2023-08-20T00:10:16;98480.79;;;19.71;84.99
50302;BME280;36550;50.472;19.744;2023-08-20T00:13:01;98482.56;;;19.70;85.02
50302;BME280;36550;50.472;19.744;2023-08-20T00:15:45;98480.11;;;19.70;85.45
50302;BME280;36550;50.472;19.744;2023-08-20T00:18:30;98475.92;;;19.69;85.54
50302;BME280;36550;50.472;19.744;2023-08-20T00:21:14;98472.06;;;19.71;85.69
50302;BME280;36550;50.472;19.744;2023-08-20T00:23:59;98469.23;;;19.72;85.85
50302;BME280;36550;50.472;19.744;2023-08-20T00:26:43;98469.13;;;19.73;85.92
50302;BME280;36550;50.472;19.744;2023-08-20T00:29:28;98470.25;;;19.74;85.91
50302;BME280;36550;50.472;19.744;2023-08-20T00:32:12;98466.41;;;19.75;86.02
50302;BME280;36550;50.472;19.744;2023-08-20T00:34:56;98466.14;;;19.74;86.03
50302;BME280;36550;50.472;19.744;2023-08-20T00:37:40;98464.91;;;19.74;86.14
50302;BME280;36550;50.472;19.744;2023-08-20T00:40:24;98463.48;;;19.75;86.27
50302;BME280;36550;50.472;19.744;2023-08-20T00:43:08;98462.43;;;19.73;86.38
50302;BME280;36550;50.472;19.744;2023-08-20T00:45:52;98456.69;;;19.73;86.35
50302;BME280;36550;50.472;19.744;2023-08-20T00:48:36;98458.39;;;19.72;86.39
50302;BME280;36550;50.472;19.744;2023-08-20T00:51:21;98457.79;;;19.72;86.36
50302;BME280;36550;50.472;19.744;2023-08-20T00:54:06;98455.41;;;19.69;86.35
50302;BME280;36550;50.472;19.744;2023-08-20T00:56:50;98455.58;;;19.69;86.60
50302;BME280;36550;50.472;19.744;2023-08-20T00:59:35;98452.55;;;19.69;86.51
50302;BME280;36550;50.472;19.744;2023-08-20T01:02:19;98451.05;;;19.69;86.70
50302;BME280;36550;50.472;19.744;2023-08-20T01:05:05;98449.39;;;19.67;86.81
50302;BME280;36550;50.472;19.744;2023-08-20T01:08:13;98447.67;;;19.67;86.97
50302;BME280;36550;50.472;19.744;2023-08-20T01:11:06;98452.30;;;19.68;86.97
50302;BME280;36550;50.472;19.744;2023-08-20T01:13:58;98457.66;;;19.68;87.27
50302;BME280;36550;50.472;19.744;2023-08-20T01:16:43;98461.44;;;19.69;87.32
50302;BME280;36550;50.472;19.744;2023-08-20T01:19:27;98459.95;;;19.70;87.46
50302;BME280;36550;50.472;19.744;2023-08-20T01:28:35;98457.30;;;19.71;87.73
50302;BME280;36550;50.472;19.744;2023-08-20T01:31:20;98453.01;;;19.71;87.78
50302;BME280;36550;50.472;19.744;2023-08-20T01:34:04;98454.08;;;19.71;87.92
50302;BME280;36550;50.472;19.744;2023-08-20T01:36:49;98448.16;;;19.71;87.88
50302;BME280;36550;50.472;19.744;2023-08-20T01:39:32;98451.88;;;19.71;88.00
50302;BME280;36550;50.472;19.744;2023-08-20T01:42:18;98454.86;;;19.71;87.99
50302;BME280;36550;50.472;19.744;2023-08-20T01:45:02;98458.54;;;19.71;87.99
50302;BME280;36550;50.472;19.744;2023-08-20T01:47:46;98460.23;;;19.72;88.27
50302;BME280;36550;50.472;19.744;2023-08-20T01:50:31;98462.05;;;19.72;88.22
50302;BME280;36550;50.472;19.744;2023-08-20T01:53:15;98462.11;;;19.72;88.22
50302;BME280;36550;50.472;19.744;2023-08-20T01:55:58;98462.95;;;19.72;88.36
50302;BME280;36550;50.472;19.744;2023-08-20T01:58:42;98465.63;;;19.71;88.28
50302;BME280;36550;50.472;19.744;2023-08-20T02:01:26;98468.86;;;19.68;88.34
50302;BME280;36550;50.472;19.744;2023-08-20T02:04:10;98470.63;;;19.65;88.30
50302;BME280;36550;50.472;19.744;2023-08-20T02:06:54;98469.27;;;19.64;88.35
50302;BME280;36550;50.472;19.744;2023-08-20T02:09:38;98467.45;;;19.63;88.39
50302;BME280;36550;50.472;19.744;2023-08-20T02:12:22;98469.28;;;19.62;88.36
50302;BME280;36550;50.472;19.744;2023-08-20T02:15:07;98468.24;;;19.60;88.45
50302;BME280;36550;50.472;19.744;2023-08-20T02:17:51;98472.89;;;19.58;88.36
50302;BME280;36550;50.472;19.744;2023-08-20T02:20:35;98471.64;;;19.56;88.31
50302;BME280;36550;50.472;19.744;2023-08-20T02:23:19;98468.63;;;19.54;88.54
50302;BME280;36550;50.472;19.744;2023-08-20T02:26:03;98470.23;;;19.52;88.26
50302;BME280;36550;50.472;19.744;2023-08-20T02:28:47;98468.55;;;19.49;88.50
50302;BME280;36550;50.472;19.744;2023-08-20T02:31:31;98467.09;;;19.47;88.63
50302;BME280;36550;50.472;19.744;2023-08-20T02:34:15;98466.67;;;19.47;89.25
50302;BME280;36550;50.472;19.744;2023-08-20T02:36:59;98460.85;;;19.48;89.25
50302;BME280;36550;50.472;19.744;2023-08-20T02:39:43;98464.58;;;19.49;89.33
50302;BME280;36550;50.472;19.744;2023-08-20T02:42:27;98463.39;;;19.50;89.43
50302;BME280;36550;50.472;19.744;2023-08-20T02:45:11;98464.66;;;19.51;89.53
50302;BME280;36550;50.472;19.744;2023-08-20T02:47:55;98464.05;;;19.52;89.67
50302;BME280;36550;50.472;19.744;2023-08-20T02:50:39;98465.00;;;19.54;89.63
50302;BME280;36550;50.472;19.744;2023-08-20T02:53:23;98464.35;;;19.55;89.93
50302;BME280;36550;50.472;19.744;2023-08-20T02:56:08;98464.81;;;19.56;89.99
50302;BME280;36550;50.472;19.744;2023-08-20T02:58:52;98464.07;;;19.56;89.97
50302;BME280;36550;50.472;19.744;2023-08-20T03:01:36;98464.01;;;19.56;90.07
50302;BME280;36550;50.472;19.744;2023-08-20T03:04:20;98464.92;;;19.56;90.16
50302;BME280;36550;50.472;19.744;2023-08-20T03:07:04;98470.58;;;19.56;90.12
50302;BME280;36550;50.472;19.744;2023-08-20T03:09:48;98472.05;;;19.56;90.13
50302;BME280;36550;50.472;19.744;2023-08-20T03:12:33;98473.36;;;19.54;90.09
50302;BME280;36550;50.472;19.744;2023-08-20T03:15:16;98475.88;;;19.52;90.17
50302;BME280;36550;50.472;19.744;2023-08-20T03:18:01;98473.08;;;19.50;90.25
50302;BME280;36550;50.472;19.744;2023-08-20T03:20:45;98480.16;;;19.48;90.08
50302;BME280;36550;50.472;19.744;2023-08-20T03:23:29;98478.69;;;19.47;90.06
50302;BME280;36550;50.472;19.744;2023-08-20T03:26:13;98480.20;;;19.45;90.18
50302;BME280;36550;50.472;19.744;2023-08-20T03:28:57;98481.49;;;19.44;90.01
50302;BME280;36550;50.472;19.744;2023-08-20T03:31:43;98481.40;;;19.42;90.13
50302;BME280;36550;50.472;19.744;2023-08-20T03:34:27;98485.61;;;19.41;90.13
50302;BME280;36550;50.472;19.744;2023-08-20T03:37:11;98484.25;;;19.40;90.14
50302;BME280;36550;50.472;19.744;2023-08-20T03:39:56;98485.21;;;19.40;90.16
50302;BME280;36550;50.472;19.744;2023-08-20T03:42:40;98482.61;;;19.39;90.14
50302;BME280;36550;50.472;19.744;2023-08-20T03:45:26;98484.95;;;19.38;90.22
50302;BME280;36550;50.472;19.744;2023-08-20T03:48:10;98488.46;;;19.38;90.34
50302;BME280;36550;50.472;19.744;2023-08-20T03:50:54;98489.69;;;19.39;90.30
50302;BME280;36550;50.472;19.744;2023-08-20T03:53:38;98495.54;;;19.38;90.33
50302;BME280;36550;50.472;19.744;2023-08-20T03:56:22;98494.00;;;19.38;90.24
50302;BME280;36550;50.472;19.744;2023-08-20T03:59:06;98496.54;;;19.39;90.27
50302;BME280;36550;50.472;19.744;2023-08-20T04:01:50;98496.21;;;19.40;90.29
50302;BME280;36550;50.472;19.744;2023-08-20T04:04:35;98500.73;;;19.41;90.36
50302;BME280;36550;50.472;19.744;2023-08-20T04:07:20;98501.66;;;19.44;90.72
50302;BME280;36550;50.472;19.744;2023-08-20T04:10:04;98501.58;;;19.48;90.64
50302;BME280;36550;50.472;19.744;2023-08-20T04:12:48;98500.15;;;19.53;90.94
50302;BME280;36550;50.472;19.744;2023-08-20T04:15:32;98499.66;;;19.60;91.08
50302;BME280;36550;50.472;19.744;2023-08-20T04:18:16;98499.92;;;19.66;91.15
50302;BME280;36550;50.472;19.744;2023-08-20T04:21:00;98498.15;;;19.73;91.27
50302;BME280;36550;50.472;19.744;2023-08-20T04:23:44;98500.89;;;19.79;91.25
50302;BME280;36550;50.472;19.744;2023-08-20T04:26:28;98500.73;;;19.84;91.38
50302;BME280;36550;50.472;19.744;2023-08-20T04:29:12;98496.05;;;19.89;91.43
50302;BME280;36550;50.472;19.744;2023-08-20T04:31:56;98500.27;;;19.97;91.47
50302;BME280;36550;50.472;19.744;2023-08-20T04:34:40;98497.52;;;20.04;91.60
50302;BME280;36550;50.472;19.744;2023-08-20T04:37:23;98494.55;;;20.12;91.73
50302;BME280;36550;50.472;19.744;2023-08-20T04:40:07;98494.58;;;20.20;91.86
50302;BME280;36550;50.472;19.744;2023-08-20T04:42:52;98495.85;;;20.28;91.81
50302;BME280;36550;50.472;19.744;2023-08-20T04:45:36;98498.03;;;20.36;91.81
50302;BME280;36550;50.472;19.744;2023-08-20T04:48:20;98500.48;;;20.45;92.03
50302;BME280;36550;50.472;19.744;2023-08-20T04:51:05;98501.69;;;20.54;92.02
50302;BME280;36550;50.472;19.744;2023-08-20T04:53:49;98501.17;;;20.63;92.02
50302;BME280;36550;50.472;19.744;2023-08-20T04:56:34;98500.93;;;20.70;92.00
50302;BME280;36550;50.472;19.744;2023-08-20T04:59:17;98498.21;;;20.77;91.97
50302;BME280;36550;50.472;19.744;2023-08-20T05:02:01;98492.92;;;20.84;91.96
50302;BME280;36550;50.472;19.744;2023-08-20T05:04:45;98491.38;;;20.91;91.89
50302;BME280;36550;50.472;19.744;2023-08-20T05:07:29;98491.11;;;21.00;91.93
50302;BME280;36550;50.472;19.744;2023-08-20T05:10:13;98491.66;;;21.08;91.98
50302;BME280;36550;50.472;19.744;2023-08-20T05:12:57;98491.52;;;21.17;91.95
50302;BME280;36550;50.472;19.744;2023-08-20T05:15:41;98493.55;;;21.27;91.96
50302;BME280;36550;50.472;19.744;2023-08-20T05:18:24;98491.96;;;21.35;92.01
50302;BME280;36550;50.472;19.744;2023-08-20T05:21:10;98493.16;;;21.44;91.94
50302;BME280;36550;50.472;19.744;2023-08-20T05:23:57;98492.33;;;21.53;91.87
50302;BME280;36550;50.472;19.744;2023-08-20T05:26:41;98496.85;;;21.63;91.81
50302;BME280;36550;50.472;19.744;2023-08-20T05:29:26;98502.23;;;21.73;91.86
50302;BME280;36550;50.472;19.744;2023-08-20T05:32:10;98497.54;;;21.83;91.84
50302;BME280;36550;50.472;19.744;2023-08-20T05:34:54;98500.11;;;21.95;91.90
50302;BME280;36550;50.472;19.744;2023-08-20T05:37:38;98501.70;;;22.06;91.85
50302;BME280;36550;50.472;19.744;2023-08-20T05:40:22;98502.23;;;22.18;91.90
50302;BME280;36550;50.472;19.744;2023-08-20T05:43:06;98509.21;;;22.30;91.77
50302;BME280;36550;50.472;19.744;2023-08-20T05:45:50;98507.92;;;22.41;91.65
50302;BME280;36550;50.472;19.744;2023-08-20T05:48:34;98509.77;;;22.52;91.66
50302;BME280;36550;50.472;19.744;2023-08-20T05:51:19;98512.10;;;22.63;91.60
50302;BME280;36550;50.472;19.744;2023-08-20T05:54:03;98513.75;;;22.74;91.51
50302;BME280;36550;50.472;19.744;2023-08-20T05:56:47;98520.31;;;22.87;91.44
50302;BME280;36550;50.472;19.744;2023-08-20T05:59:32;98521.61;;;23.00;91.34
50302;BME280;36550;50.472;19.744;2023-08-20T06:02:16;98527.95;;;23.14;91.16
50302;BME280;36550;50.472;19.744;2023-08-20T06:05:02;98521.27;;;23.27;90.97
50302;BME280;36550;50.472;19.744;2023-08-20T06:07:49;98526.07;;;23.39;90.73
50302;BME280;36550;50.472;19.744;2023-08-20T06:10:34;98532.97;;;23.52;90.52
50302;BME280;36550;50.472;19.744;2023-08-20T06:13:17;98531.81;;;23.64;90.45
50302;BME280;36550;50.472;19.744;2023-08-20T06:16:01;98534.91;;;23.75;89.99
50302;BME280;36550;50.472;19.744;2023-08-20T06:18:45;98536.12;;;23.87;89.81
50302;BME280;36550;50.472;19.744;2023-08-20T06:21:30;98537.54;;;23.98;88.77
50302;BME280;36550;50.472;19.744;2023-08-20T06:24:14;98533.48;;;24.11;89.17
50302;BME280;36550;50.472;19.744;2023-08-20T06:26:58;98539.90;;;24.24;89.14
50302;BME280;36550;50.472;19.744;2023-08-20T06:29:42;98539.59;;;24.35;88.73
50302;BME280;36550;50.472;19.744;2023-08-20T06:32:27;98542.41;;;24.46;88.45
50302;BME280;36550;50.472;19.744;2023-08-20T06:35:11;98541.55;;;24.59;88.35
50302;BME280;36550;50.472;19.744;2023-08-20T06:37:55;98542.58;;;24.68;87.91
50302;BME280;36550;50.472;19.744;2023-08-20T06:40:38;98539.99;;;24.77;87.76
50302;BME280;36550;50.472;19.744;2023-08-20T06:43:22;98540.75;;;24.87;87.32
50302;BME280;36550;50.472;19.744;2023-08-20T06:46:06;98541.45;;;24.98;87.21
50302;BME280;36550;50.472;19.744;2023-08-20T06:48:51;98540.91;;;25.07;86.93
50302;BME280;36550;50.472;19.744;2023-08-20T06:51:35;98539.10;;;25.14;86.64
50302;BME280;36550;50.472;19.744;2023-08-20T06:54:19;98539.99;;;25.23;86.45
50302;BME280;36550;50.472;19.744;2023-08-20T06:57:04;98542.58;;;25.32;86.13
50302;BME280;36550;50.472;19.744;2023-08-20T06:59:48;98541.66;;;25.41;85.85
50302;BME280;36550;50.472;19.744;2023-08-20T07:02:31;98541.31;;;25.51;85.29
50302;BME280;36550;50.472;19.744;2023-08-20T07:05:16;98540.69;;;25.61;84.93
50302;BME280;36550;50.472;19.744;2023-08-20T07:08:01;98545.89;;;25.67;84.70
50302;BME280;36550;50.472;19.744;2023-08-20T07:10:46;98545.59;;;25.75;84.51
50302;BME280;36550;50.472;19.744;2023-08-20T07:13:29;98548.23;;;25.84;84.34
50302;BME280;36550;50.472;19.744;2023-08-20T07:16:13;98546.83;;;25.92;84.20
50302;BME280;36550;50.472;19.744;2023-08-20T07:18:57;98547.53;;;26.02;83.87
50302;BME280;36550;50.472;19.744;2023-08-20T07:21:42;98548.52;;;26.09;81.63
50302;BME280;36550;50.472;19.744;2023-08-20T07:24:26;98552.75;;;26.15;81.52
50302;BME280;36550;50.472;19.744;2023-08-20T07:27:11;98554.16;;;26.21;80.62
50302;BME280;36550;50.472;19.744;2023-08-20T07:29:56;98553.93;;;26.27;80.75
50302;BME280;36550;50.472;19.744;2023-08-20T07:32:40;98558.06;;;26.31;79.11
50302;BME280;36550;50.472;19.744;2023-08-20T07:35:24;98559.02;;;26.36;78.54
50302;BME280;36550;50.472;19.744;2023-08-20T07:38:08;98559.12;;;26.41;77.77
50302;BME280;36550;50.472;19.744;2023-08-20T07:40:52;98554.66;;;26.44;76.07
50302;BME280;36550;50.472;19.744;2023-08-20T07:43:40;98557.23;;;26.48;73.50
50302;BME280;36550;50.472;19.744;2023-08-20T07:46:24;98559.36;;;26.53;74.30
50302;BME280;36550;50.472;19.744;2023-08-20T07:49:09;98557.64;;;26.58;73.85
50302;BME280;36550;50.472;19.744;2023-08-20T07:51:53;98556.93;;;26.61;74.50
50302;BME280;36550;50.472;19.744;2023-08-20T07:54:38;98553.69;;;26.63;74.26
50302;BME280;36550;50.472;19.744;2023-08-20T07:57:23;98555.53;;;26.67;74.93
50302;BME280;36550;50.472;19.744;2023-08-20T08:00:07;98555.02;;;26.67;74.44
50302;BME280;36550;50.472;19.744;2023-08-20T08:02:52;98557.88;;;26.70;73.64
50302;BME280;36550;50.472;19.744;2023-08-20T08:05:36;98559.41;;;26.74;72.70
50302;BME280;36550;50.472;19.744;2023-08-20T08:08:20;98556.02;;;26.80;72.38
50302;BME280;36550;50.472;19.744;2023-08-20T08:11:05;98559.47;;;26.84;71.34
50302;BME280;36550;50.472;19.744;2023-08-20T08:13:49;98556.39;;;26.88;70.74
50302;BME280;36550;50.472;19.744;2023-08-20T08:16:33;98557.95;;;26.93;70.77
50302;BME280;36550;50.472;19.744;2023-08-20T08:19:17;98559.02;;;26.97;71.89
50302;BME280;36550;50.472;19.744;2023-08-20T08:22:02;98554.70;;;26.98;70.76
50302;BME280;36550;50.472;19.744;2023-08-20T08:24:47;98559.36;;;27.04;71.27
50302;BME280;36550;50.472;19.744;2023-08-20T08:27:31;98562.56;;;27.09;70.47
50302;BME280;36550;50.472;19.744;2023-08-20T08:30:15;98556.95;;;27.15;70.05
50302;BME280;36550;50.472;19.744;2023-08-20T08:32:59;98559.81;;;27.22;69.75
50302;BME280;36550;50.472;19.744;2023-08-20T08:35:43;98560.70;;;27.29;68.74
50302;BME280;36550;50.472;19.744;2023-08-20T08:38:28;98560.63;;;27.33;67.93
50302;BME280;36550;50.472;19.744;2023-08-20T08:41:13;98563.36;;;27.36;66.20
50302;BME280;36550;50.472;19.744;2023-08-20T08:43:57;98560.14;;;27.41;68.06
50302;BME280;36550;50.472;19.744;2023-08-20T08:46:41;98561.85;;;27.48;67.08
50302;BME280;36550;50.472;19.744;2023-08-20T08:49:26;98565.30;;;27.57;66.53
50302;BME280;36550;50.472;19.744;2023-08-20T08:52:10;98559.41;;;27.63;66.82
50302;BME280;36550;50.472;19.744;2023-08-20T08:54:55;98562.23;;;27.67;65.17
50302;BME280;36550;50.472;19.744;2023-08-20T08:57:39;98562.64;;;27.72;65.69
50302;BME280;36550;50.472;19.744;2023-08-20T09:00:24;98563.56;;;27.72;63.57
50302;BME280;36550;50.472;19.744;2023-08-20T09:03:08;98565.73;;;27.74;64.28
50302;BME280;36550;50.472;19.744;2023-08-20T09:05:57;98563.20;;;27.82;64.92
50302;BME280;36550;50.472;19.744;2023-08-20T09:08:41;98563.79;;;27.90;64.55
50302;BME280;36550;50.472;19.744;2023-08-20T09:11:34;98567.16;;;27.96;64.79
50302;BME280;36550;50.472;19.744;2023-08-20T09:14:24;98567.61;;;27.95;63.32
50302;BME280;36550;50.472;19.744;2023-08-20T09:17:11;98571.52;;;27.92;64.29
50302;BME280;36550;50.472;19.744;2023-08-20T09:19:56;98565.59;;;27.93;64.11
50302;BME280;36550;50.472;19.744;2023-08-20T09:22:48;98564.77;;;27.96;63.29
50302;BME280;36550;50.472;19.744;2023-08-20T09:25:33;98567.77;;;27.96;62.07
50302;BME280;36550;50.472;19.744;2023-08-20T09:28:17;98573.10;;;27.92;62.09
50302;BME280;36550;50.472;19.744;2023-08-20T09:31:02;98573.81;;;27.81;61.30
50302;BME280;36550;50.472;19.744;2023-08-20T09:33:53;98571.86;;;27.73;62.28
50302;BME280;36550;50.472;19.744;2023-08-20T09:36:37;98565.80;;;27.72;63.21
50302;BME280;36550;50.472;19.744;2023-08-20T09:39:22;98568.50;;;27.79;63.55
50302;BME280;36550;50.472;19.744;2023-08-20T09:42:07;98573.39;;;27.87;61.56
50302;BME280;36550;50.472;19.744;2023-08-20T09:44:52;98575.24;;;27.93;62.08
50302;BME280;36550;50.472;19.744;2023-08-20T09:47:38;98573.92;;;28.05;62.10
50302;BME280;36550;50.472;19.744;2023-08-20T09:50:25;98573.86;;;28.18;60.17
50302;BME280;36550;50.472;19.744;2023-08-20T09:53:12;98566.77;;;28.31;61.45
50302;BME280;36550;50.472;19.744;2023-08-20T09:56:00;98569.46;;;28.37;59.51
50302;BME280;36550;50.472;19.744;2023-08-20T09:58:48;98571.14;;;28.39;59.77
50302;BME280;36550;50.472;19.744;2023-08-20T10:01:34;98567.66;;;28.47;61.25
50302;BME280;36550;50.472;19.744;2023-08-20T10:04:20;98566.77;;;28.52;60.74
50302;BME280;36550;50.472;19.744;2023-08-20T10:07:05;98565.45;;;28.50;58.72
50302;BME280;36550;50.472;19.744;2023-08-20T10:09:49;98563.38;;;28.35;57.69
50302;BME280;36550;50.472;19.744;2023-08-20T10:12:36;98561.77;;;28.20;59.16
50302;BME280;36550;50.472;19.744;2023-08-20T10:15:22;98557.42;;;28.08;59.74
50302;BME280;36550;50.472;19.744;2023-08-20T10:18:08;98554.48;;;28.00;58.22
50302;BME280;36550;50.472;19.744;2023-08-20T10:20:52;98552.16;;;28.05;60.07
50302;BME280;36550;50.472;19.744;2023-08-20T10:23:40;98556.02;;;28.10;59.19
50302;BME280;36550;50.472;19.744;2023-08-20T10:26:26;98558.61;;;28.09;59.54
50302;BME280;36550;50.472;19.744;2023-08-20T10:32:49;98556.06;;;27.90;59.80
50302;BME280;36550;50.472;19.744;2023-08-20T10:38:22;98550.29;;;27.80;61.14
50302;BME280;36550;50.472;19.744;2023-08-20T10:41:07;98550.96;;;27.85;60.88
50302;BME280;36550;50.472;19.744;2023-08-20T10:43:59;98545.45;;;27.92;59.69
50302;BME280;36550;50.472;19.744;2023-08-20T10:46:50;98543.17;;;28.00;58.72
50302;BME280;36550;50.472;19.744;2023-08-20T10:49:34;98542.56;;;28.10;59.44
50302;BME280;36550;50.472;19.744;2023-08-20T10:52:20;98541.34;;;28.16;59.92
50302;BME280;36550;50.472;19.744;2023-08-20T10:55:07;98543.81;;;28.21;60.24
50302;BME280;36550;50.472;19.744;2023-08-20T10:57:57;98541.76;;;28.22;59.46
50302;BME280;36550;50.472;19.744;2023-08-20T11:00:43;98540.73;;;28.14;57.61
50302;BME280;36550;50.472;19.744;2023-08-20T11:03:27;98537.61;;;28.05;58.40
50302;BME280;36550;50.472;19.744;2023-08-20T11:06:11;98537.91;;;28.00;59.32
50302;BME280;36550;50.472;19.744;2023-08-20T11:08:56;98538.89;;;27.97;59.57
50302;BME280;36550;50.472;19.744;2023-08-20T11:11:41;98538.27;;;27.96;59.75
50302;BME280;36550;50.472;19.744;2023-08-20T11:14:26;98537.39;;;28.00;59.25
50302;BME280;36550;50.472;19.744;2023-08-20T11:17:10;98531.19;;;28.04;58.15
50302;BME280;36550;50.472;19.744;2023-08-20T11:19:54;98534.80;;;28.09;56.17
50302;BME280;36550;50.472;19.744;2023-08-20T11:22:39;98533.34;;;28.16;55.87
50302;BME280;36550;50.472;19.744;2023-08-20T11:25:24;98533.63;;;28.26;54.09
50302;BME280;36550;50.472;19.744;2023-08-20T11:28:09;98531.58;;;28.37;55.69
50302;BME280;36550;50.472;19.744;2023-08-20T11:30:53;98538.02;;;28.43;54.87
50302;BME280;36550;50.472;19.744;2023-08-20T11:33:39;98539.38;;;28.46;55.76
50302;BME280;36550;50.472;19.744;2023-08-20T11:36:24;98535.11;;;28.42;55.29
50302;BME280;36550;50.472;19.744;2023-08-20T11:39:08;98534.46;;;28.38;56.38
50302;BME280;36550;50.472;19.744;2023-08-20T11:41:52;98532.73;;;28.37;54.55
50302;BME280;36550;50.472;19.744;2023-08-20T11:44:44;98529.69;;;28.44;54.96
50302;BME280;36550;50.472;19.744;2023-08-20T11:47:29;98527.95;;;28.52;56.06
50302;BME280;36550;50.472;19.744;2023-08-20T11:50:13;98529.08;;;28.61;53.45
50302;BME280;36550;50.472;19.744;2023-08-20T11:52:57;98526.72;;;28.68;55.27
50302;BME280;36550;50.472;19.744;2023-08-20T11:55:45;98526.45;;;28.72;54.51
50302;BME280;36550;50.472;19.744;2023-08-20T11:58:29;98524.96;;;28.77;54.38
50302;BME280;36550;50.472;19.744;2023-08-20T12:01:13;98527.21;;;28.83;54.75
50302;BME280;36550;50.472;19.744;2023-08-20T12:04:04;98527.09;;;28.86;54.89
50302;BME280;36550;50.472;19.744;2023-08-20T12:07:05;98520.35;;;28.88;54.45
50302;BME280;36550;50.472;19.744;2023-08-20T12:09:49;98519.41;;;28.88;52.62
50302;BME280;36550;50.472;19.744;2023-08-20T12:12:34;98518.89;;;28.88;53.39
50302;BME280;36550;50.472;19.744;2023-08-20T12:15:19;98524.34;;;28.87;53.14
50302;BME280;36550;50.472;19.744;2023-08-20T12:18:04;98516.88;;;28.85;54.53
50302;BME280;36550;50.472;19.744;2023-08-20T12:20:48;98518.19;;;28.83;54.49
50302;BME280;36550;50.472;19.744;2023-08-20T12:23:33;98515.64;;;28.80;54.57
50302;BME280;36550;50.472;19.744;2023-08-20T12:26:16;98510.70;;;28.80;54.14
50302;BME280;36550;50.472;19.744;2023-08-20T12:29:00;98514.39;;;28.79;54.45
50302;BME280;36550;50.472;19.744;2023-08-20T12:31:44;98512.10;;;28.80;54.01
50302;BME280;36550;50.472;19.744;2023-08-20T12:34:28;98508.67;;;28.82;53.98
50302;BME280;36550;50.472;19.744;2023-08-20T12:37:12;98504.23;;;28.80;55.12
50302;BME280;36550;50.472;19.744;2023-08-20T12:39:56;98506.45;;;28.82;54.75
50302;BME280;36550;50.472;19.744;2023-08-20T12:42:40;98506.33;;;28.83;53.95
50302;BME280;36550;50.472;19.744;2023-08-20T12:45:25;98499.01;;;28.81;52.15
50302;BME280;36550;50.472;19.744;2023-08-20T12:48:08;98498.67;;;28.83;52.88
50302;BME280;36550;50.472;19.744;2023-08-20T12:50:53;98496.44;;;28.83;53.04
50302;BME280;36550;50.472;19.744;2023-08-20T12:53:37;98496.04;;;28.80;52.09
50302;BME280;36550;50.472;19.744;2023-08-20T12:56:21;98500.94;;;28.78;52.32
50302;BME280;36550;50.472;19.744;2023-08-20T12:59:05;98496.30;;;28.78;52.19
50302;BME280;36550;50.472;19.744;2023-08-20T13:01:49;98496.80;;;28.80;53.47
50302;BME280;36550;50.472;19.744;2023-08-20T13:04:33;98500.73;;;28.82;52.80
50302;BME280;36550;50.472;19.744;2023-08-20T13:07:18;98502.97;;;28.85;53.42
50302;BME280;36550;50.472;19.744;2023-08-20T13:10:02;98502.46;;;28.86;53.20
50302;BME280;36550;50.472;19.744;2023-08-20T13:12:59;98502.45;;;28.89;53.17
50302;BME280;36550;50.472;19.744;2023-08-20T13:15:44;98498.27;;;28.91;53.99
50302;BME280;36550;50.472;19.744;2023-08-20T13:18:29;98498.02;;;28.93;53.36
50302;BME280;36550;50.472;19.744;2023-08-20T13:21:14;98493.98;;;28.98;53.39
50302;BME280;36550;50.472;19.744;2023-08-20T13:23:58;98488.63;;;29.01;52.10
50302;BME280;36550;50.472;19.744;2023-08-20T13:26:42;98493.42;;;29.00;52.30
50302;BME280;36550;50.472;19.744;2023-08-20T13:29:26;98495.16;;;28.99;52.52
50302;BME280;36550;50.472;19.744;2023-08-20T13:32:09;98496.05;;;28.98;52.80
50302;BME280;36550;50.472;19.744;2023-08-20T13:34:54;98492.16;;;28.96;51.19
50302;BME280;36550;50.472;19.744;2023-08-20T13:37:38;98497.97;;;28.97;51.34
50302;BME280;36550;50.472;19.744;2023-08-20T13:40:22;98494.52;;;28.95;50.78
50302;BME280;36550;50.472;19.744;2023-08-20T13:43:06;98495.60;;;28.95;51.68
50302;BME280;36550;50.472;19.744;2023-08-20T13:45:51;98494.60;;;28.95;51.58
50302;BME280;36550;50.472;19.744;2023-08-20T13:48:35;98489.80;;;28.94;50.36
50302;BME280;36550;50.472;19.744;2023-08-20T13:51:19;98491.77;;;28.93;51.03
50302;BME280;36550;50.472;19.744;2023-08-20T13:54:04;98483.83;;;28.94;50.19
50302;BME280;36550;50.472;19.744;2023-08-20T13:56:48;98483.34;;;28.92;50.47
50302;BME280;36550;50.472;19.744;2023-08-20T13:59:32;98487.03;;;28.89;50.38
50302;BME280;36550;50.472;19.744;2023-08-20T14:02:16;98485.98;;;28.88;50.48
50302;BME280;36550;50.472;19.744;2023-08-20T14:05:01;98488.53;;;28.85;50.40
50302;BME280;36550;50.472;19.744;2023-08-20T14:07:45;98490.29;;;28.84;50.57
50302;BME280;36550;50.472;19.744;2023-08-20T14:10:29;98489.13;;;28.81;50.22
50302;BME280;36550;50.472;19.744;2023-08-20T14:13:13;98480.67;;;28.80;50.34
50302;BME280;36550;50.472;19.744;2023-08-20T14:15:57;98482.16;;;28.80;50.15
50302;BME280;36550;50.472;19.744;2023-08-20T14:18:41;98480.62;;;28.81;50.70
50302;BME280;36550;50.472;19.744;2023-08-20T14:21:25;98477.33;;;28.78;50.20
50302;BME280;36550;50.472;19.744;2023-08-20T14:24:09;98478.98;;;28.77;49.66
50302;BME280;36550;50.472;19.744;2023-08-20T14:26:53;98476.42;;;28.77;49.30
50302;BME280;36550;50.472;19.744;2023-08-20T14:29:37;98476.25;;;28.76;50.33
50302;BME280;36550;50.472;19.744;2023-08-20T14:32:21;98474.05;;;28.75;50.57
50302;BME280;36550;50.472;19.744;2023-08-20T14:35:06;98474.40;;;28.74;50.51